sensor_id;sensor_type;location;lat;lon;timestamp;temperature;humidity
20288;DHT22;10303;51.960;8.372;2022-11-15T00:01:27;13.30;91.80
20288;DHT22;10303;51.960;8.372;2022-11-15T00:04:11;13.30;91.90
20288;DHT22;10303;51.960;8.372;2022-11-15T00:06:56;13.30;92.00
20288;DHT22;10303;51.960;8.372;2022-11-15T00:09:41;13.40;91.90
20288;DHT22;10303;51.960;8.372;2022-11-15T00:12:35;13.40;91.80
20288;DHT22;10303;51.960;8.372;2022-11-15T00:23:53;13.40;92.10
20288;DHT22;10303;51.960;8.372;2022-11-15T00:33:54;13.60;92.00
20288;DHT22;10303;51.960;8.372;2022-11-15T00:47:14;13.60;92.60
20288;DHT22;10303;51.960;8.372;2022-11-15T00:55:51;13.70;92.40
20288;DHT22;10303;51.960;8.372;2022-11-15T01:01:53;13.70;92.60
20288;DHT22;10303;51.960;8.372;2022-11-15T01:04:39;13.70;92.60
20288;DHT22;10303;51.960;8.372;2022-11-15T01:07:34;13.80;92.80
20288;DHT22;10303;51.960;8.372;2022-11-15T01:10:54;13.80;92.70
20288;DHT22;10303;51.960;8.372;2022-11-15T01:16:42;13.90;93.00
20288;DHT22;10303;51.960;8.372;2022-11-15T01:29:39;14.00;93.30
20288;DHT22;10303;51.960;8.372;2022-11-15T01:32:24;14.10;93.30
20288;DHT22;10303;51.960;8.372;2022-11-15T01:35:09;14.00;93.50
20288;DHT22;10303;51.960;8.372;2022-11-15T01:37:53;14.10;93.30
20288;DHT22;10303;51.960;8.372;2022-11-15T01:40:38;14.10;93.70
20288;DHT22;10303;51.960;8.372;2022-11-15T01:49:21;14.20;93.50
20288;DHT22;10303;51.960;8.372;2022-11-15T01:55:18;14.30;93.70
20288;DHT22;10303;51.960;8.372;2022-11-15T01:58:09;14.30;93.70
20288;DHT22;10303;51.960;8.372;2022-11-15T02:12:07;14.50;94.10
20288;DHT22;10303;51.960;8.372;2022-11-15T02:15:10;14.00;94.00
20288;DHT22;10303;51.960;8.372;2022-11-15T02:18:44;14.50;93.80
20288;DHT22;10303;51.960;8.372;2022-11-15T02:28:31;14.50;94.10
20288;DHT22;10303;51.960;8.372;2022-11-15T02:44:36;14.60;94.80
20288;DHT22;10303;51.960;8.372;2022-11-15T02:50:48;14.70;95.00
20288;DHT22;10303;51.960;8.372;2022-11-15T02:56:36;14.70;95.00
20288;DHT22;10303;51.960;8.372;2022-11-15T03:03:23;14.70;95.20
20288;DHT22;10303;51.960;8.372;2022-11-15T03:07:37;14.80;95.40
20288;DHT22;10303;51.960;8.372;2022-11-15T03:17:58;14.90;95.70
20288;DHT22;10303;51.960;8.372;2022-11-15T03:20:25;15.00;95.70
20288;DHT22;10303;51.960;8.372;2022-11-15T03:23:32;14.60;95.60
20288;DHT22;10303;51.960;8.372;2022-11-15T03:26:24;15.00;96.10
20288;DHT22;10303;51.960;8.372;2022-11-15T03:32:25;15.10;96.30
20288;DHT22;10303;51.960;8.372;2022-11-15T03:38:26;15.10;96.30
20288;DHT22;10303;51.960;8.372;2022-11-15T03:44:56;15.20;96.40
20288;DHT22;10303;51.960;8.372;2022-11-15T03:50:57;15.20;96.50
20288;DHT22;10303;51.960;8.372;2022-11-15T03:56:31;15.30;96.40
20288;DHT22;10303;51.960;8.372;2022-11-15T03:59:16;15.20;96.50
20288;DHT22;10303;51.960;8.372;2022-11-15T04:02:01;15.30;96.60
20288;DHT22;10303;51.960;8.372;2022-11-15T04:04:45;15.30;96.50
20288;DHT22;10303;51.960;8.372;2022-11-15T04:07:30;15.30;96.90
20288;DHT22;10303;51.960;8.372;2022-11-15T04:10:15;15.30;96.80
20288;DHT22;10303;51.960;8.372;2022-11-15T04:13:22;14.90;96.80
20288;DHT22;10303;51.960;8.372;2022-11-15T04:16:07;15.40;97.10
20288;DHT22;10303;51.960;8.372;2022-11-15T04:18:52;15.40;96.90
20288;DHT22;10303;51.960;8.372;2022-11-15T04:21:53;15.40;96.80
20288;DHT22;10303;51.960;8.372;2022-11-15T04:25:10;15.40;96.80
20288;DHT22;10303;51.960;8.372;2022-11-15T04:28:09;15.40;98.00
20288;DHT22;10303;51.960;8.372;2022-11-15T04:34:05;15.40;97.10
20288;DHT22;10303;51.960;8.372;2022-11-15T04:36:50;15.40;96.90
20288;DHT22;10303;51.960;8.372;2022-11-15T04:39:57;15.50;97.00
20288;DHT22;10303;51.960;8.372;2022-11-15T04:45:58;15.40;97.40
20288;DHT22;10303;51.960;8.372;2022-11-15T05:07:48;15.40;97.30
20288;DHT22;10303;51.960;8.372;2022-11-15T05:13:54;15.40;97.30
20288;DHT22;10303;51.960;8.372;2022-11-15T05:16:39;15.40;97.30
20288;DHT22;10303;51.960;8.372;2022-11-15T05:19:31;15.40;97.30
20288;DHT22;10303;51.960;8.372;2022-11-15T05:22:15;15.40;97.40
20288;DHT22;10303;51.960;8.372;2022-11-15T05:37:23;15.40;97.60
20288;DHT22;10303;51.960;8.372;2022-11-15T05:40:11;15.40;97.90
20288;DHT22;10303;51.960;8.372;2022-11-15T05:43:15;15.40;97.50
20288;DHT22;10303;51.960;8.372;2022-11-15T06:02:32;15.40;97.60
20288;DHT22;10303;51.960;8.372;2022-11-15T06:21:03;15.40;97.80
20288;DHT22;10303;51.960;8.372;2022-11-15T06:23:48;15.40;97.80
20288;DHT22;10303;51.960;8.372;2022-11-15T06:26:33;15.40;97.70
20288;DHT22;10303;51.960;8.372;2022-11-15T06:29:23;15.40;97.70
20288;DHT22;10303;51.960;8.372;2022-11-15T06:32:30;15.40;98.30
20288;DHT22;10303;51.960;8.372;2022-11-15T06:36:08;15.40;98.00
20288;DHT22;10303;51.960;8.372;2022-11-15T06:42:27;15.40;97.90
20288;DHT22;10303;51.960;8.372;2022-11-15T06:45:19;15.00;98.50
20288;DHT22;10303;51.960;8.372;2022-11-15T07:00:41;15.50;98.50
20288;DHT22;10303;51.960;8.372;2022-11-15T07:07:01;15.50;98.70
20288;DHT22;10303;51.960;8.372;2022-11-15T07:10:12;15.50;98.60
20288;DHT22;10303;51.960;8.372;2022-11-15T07:32:27;15.70;99.40
20288;DHT22;10303;51.960;8.372;2022-11-15T07:35:13;15.70;99.10
20288;DHT22;10303;51.960;8.372;2022-11-15T07:40:56;15.80;98.90
20288;DHT22;10303;51.960;8.372;2022-11-15T07:46:59;15.80;99.10
20288;DHT22;10303;51.960;8.372;2022-11-15T07:49:44;15.80;99.40
20288;DHT22;10303;51.960;8.372;2022-11-15T07:55:58;15.90;99.30
20288;DHT22;10303;51.960;8.372;2022-11-15T08:09:26;16.10;99.70
20288;DHT22;10303;51.960;8.372;2022-11-15T08:12:43;16.10;99.60
20288;DHT22;10303;51.960;8.372;2022-11-15T08:18:56;16.20;99.90
20288;DHT22;10303;51.960;8.372;2022-11-15T08:21:40;16.20;99.90
20288;DHT22;10303;51.960;8.372;2022-11-15T08:24:25;16.30;99.90
20288;DHT22;10303;51.960;8.372;2022-11-15T08:27:16;16.40;99.90
20288;DHT22;10303;51.960;8.372;2022-11-15T08:30:01;16.40;99.90
20288;DHT22;10303;51.960;8.372;2022-11-15T08:33:34;16.50;99.90
20288;DHT22;10303;51.960;8.372;2022-11-15T08:36:47;16.60;99.90
20288;DHT22;10303;51.960;8.372;2022-11-15T08:39:42;16.70;99.90
20288;DHT22;10303;51.960;8.372;2022-11-15T08:42:31;16.80;99.90
20288;DHT22;10303;51.960;8.372;2022-11-15T08:45:16;16.90;99.90
20288;DHT22;10303;51.960;8.372;2022-11-15T08:51:05;17.10;99.90
20288;DHT22;10303;51.960;8.372;2022-11-15T08:53:50;17.40;99.90
20288;DHT22;10303;51.960;8.372;2022-11-15T08:59:23;17.90;99.90
20288;DHT22;10303;51.960;8.372;2022-11-15T09:02:14;18.00;99.90
20288;DHT22;10303;51.960;8.372;2022-11-15T09:08:00;18.40;99.90
20288;DHT22;10303;51.960;8.372;2022-11-15T09:11:14;18.70;99.90
20288;DHT22;10303;51.960;8.372;2022-11-15T09:14:26;19.00;98.80
20288;DHT22;10303;51.960;8.372;2022-11-15T09:17:11;19.00;98.70
20288;DHT22;10303;51.960;8.372;2022-11-15T09:19:58;19.00;98.40
20288;DHT22;10303;51.960;8.372;2022-11-15T09:25:44;19.20;98.00
20288;DHT22;10303;51.960;8.372;2022-11-15T09:28:30;19.30;97.10
20288;DHT22;10303;51.960;8.372;2022-11-15T09:31:17;18.40;96.70
20288;DHT22;10303;51.960;8.372;2022-11-15T09:34:14;19.40;96.30
20288;DHT22;10303;51.960;8.372;2022-11-15T09:36:58;19.50;96.30
20288;DHT22;10303;51.960;8.372;2022-11-15T09:39:44;19.60;96.20
20288;DHT22;10303;51.960;8.372;2022-11-15T09:49:11;19.70;94.30
20288;DHT22;10303;51.960;8.372;2022-11-15T09:52:19;19.70;94.70
20288;DHT22;10303;51.960;8.372;2022-11-15T09:54:49;19.80;94.60
20288;DHT22;10303;51.960;8.372;2022-11-15T09:57:54;19.80;94.30
20288;DHT22;10303;51.960;8.372;2022-11-15T10:00:32;19.80;93.40
20288;DHT22;10303;51.960;8.372;2022-11-15T10:03:41;19.80;92.70
20288;DHT22;10303;51.960;8.372;2022-11-15T10:06:23;19.90;92.80
20288;DHT22;10303;51.960;8.372;2022-11-15T10:09:06;19.80;93.10
20288;DHT22;10303;51.960;8.372;2022-11-15T10:11:42;19.80;92.40
20288;DHT22;10303;51.960;8.372;2022-11-15T10:14:24;19.80;92.80
20288;DHT22;10303;51.960;8.372;2022-11-15T10:23:05;19.90;92.60
20288;DHT22;10303;51.960;8.372;2022-11-15T10:25:47;19.90;92.40
20288;DHT22;10303;51.960;8.372;2022-11-15T10:28:32;19.90;92.00
20288;DHT22;10303;51.960;8.372;2022-11-15T10:37:10;19.90;90.70
20288;DHT22;10303;51.960;8.372;2022-11-15T10:40:23;20.10;91.70
20288;DHT22;10303;51.960;8.372;2022-11-15T10:43:21;20.20;90.90
20288;DHT22;10303;51.960;8.372;2022-11-15T10:45:50;20.70;90.60
20288;DHT22;10303;51.960;8.372;2022-11-15T10:48:21;20.50;90.60
20288;DHT22;10303;51.960;8.372;2022-11-15T10:50:49;20.60;91.00
20288;DHT22;10303;51.960;8.372;2022-11-15T10:53:40;20.70;90.80
20288;DHT22;10303;51.960;8.372;2022-11-15T10:56:26;20.70;90.20
20288;DHT22;10303;51.960;8.372;2022-11-15T10:58:55;20.90;89.10
20288;DHT22;10303;51.960;8.372;2022-11-15T11:04:20;21.10;86.40
20288;DHT22;10303;51.960;8.372;2022-11-15T11:06:48;21.20;83.80
20288;DHT22;10303;51.960;8.372;2022-11-15T11:09:38;21.40;87.20
20288;DHT22;10303;51.960;8.372;2022-11-15T11:12:28;21.40;87.20
20288;DHT22;10303;51.960;8.372;2022-11-15T11:15:13;21.60;86.90
20288;DHT22;10303;51.960;8.372;2022-11-15T11:18:07;21.80;86.10
20288;DHT22;10303;51.960;8.372;2022-11-15T11:21:03;21.90;80.70
20288;DHT22;10303;51.960;8.372;2022-11-15T11:24:17;22.10;83.50
20288;DHT22;10303;51.960;8.372;2022-11-15T11:43:08;22.80;80.00
20288;DHT22;10303;51.960;8.372;2022-11-15T11:48:46;23.20;81.50
20288;DHT22;10303;51.960;8.372;2022-11-15T11:51:36;23.50;80.30
20288;DHT22;10303;51.960;8.372;2022-11-15T11:54:22;23.70;79.20
20288;DHT22;10303;51.960;8.372;2022-11-15T11:57:10;23.90;78.30
20288;DHT22;10303;51.960;8.372;2022-11-15T12:00:38;24.20;80.70
20288;DHT22;10303;51.960;8.372;2022-11-15T12:03:30;24.40;72.50
20288;DHT22;10303;51.960;8.372;2022-11-15T12:12:44;25.00;76.60
20288;DHT22;10303;51.960;8.372;2022-11-15T12:15:25;25.10;74.20
20288;DHT22;10303;51.960;8.372;2022-11-15T12:17:57;25.20;72.90
20288;DHT22;10303;51.960;8.372;2022-11-15T12:24:02;25.30;69.20
20288;DHT22;10303;51.960;8.372;2022-11-15T12:26:39;25.40;65.90
20288;DHT22;10303;51.960;8.372;2022-11-15T12:29:32;25.50;68.70
20288;DHT22;10303;51.960;8.372;2022-11-15T12:32:00;25.40;67.50
20288;DHT22;10303;51.960;8.372;2022-11-15T12:34:33;25.40;67.40
20288;DHT22;10303;51.960;8.372;2022-11-15T12:40:37;25.50;66.10
20288;DHT22;10303;51.960;8.372;2022-11-15T12:48:53;25.60;67.00
20288;DHT22;10303;51.960;8.372;2022-11-15T13:02:42;25.60;65.80
20288;DHT22;10303;51.960;8.372;2022-11-15T13:11:45;25.50;64.20
20288;DHT22;10303;51.960;8.372;2022-11-15T13:14:48;25.40;65.00
20288;DHT22;10303;51.960;8.372;2022-11-15T13:17:44;25.30;66.00
20288;DHT22;10303;51.960;8.372;2022-11-15T13:20:25;25.20;61.70
20288;DHT22;10303;51.960;8.372;2022-11-15T13:23:02;25.10;63.70
20288;DHT22;10303;51.960;8.372;2022-11-15T13:28:47;24.90;63.10
20288;DHT22;10303;51.960;8.372;2022-11-15T13:31:45;24.70;64.20
20288;DHT22;10303;51.960;8.372;2022-11-15T13:34:33;24.60;64.40
20288;DHT22;10303;51.960;8.372;2022-11-15T13:37:00;24.40;63.10
20288;DHT22;10303;51.960;8.372;2022-11-15T13:39:32;24.30;63.70
20288;DHT22;10303;51.960;8.372;2022-11-15T13:42:03;24.10;63.70
20288;DHT22;10303;51.960;8.372;2022-11-15T13:44:39;24.00;63.80
20288;DHT22;10303;51.960;8.372;2022-11-15T13:47:25;23.80;64.10
20288;DHT22;10303;51.960;8.372;2022-11-15T13:49:53;23.60;63.20
20288;DHT22;10303;51.960;8.372;2022-11-15T13:52:22;23.40;63.70
20288;DHT22;10303;51.960;8.372;2022-11-15T13:55:13;23.30;63.90
20288;DHT22;10303;51.960;8.372;2022-11-15T13:58:01;23.10;64.40
20288;DHT22;10303;51.960;8.372;2022-11-15T14:00:48;24.00;65.30
20288;DHT22;10303;51.960;8.372;2022-11-15T14:03:33;22.80;63.40
20288;DHT22;10303;51.960;8.372;2022-11-15T14:06:13;22.60;63.70
20288;DHT22;10303;51.960;8.372;2022-11-15T14:11:31;22.40;64.60
20288;DHT22;10303;51.960;8.372;2022-11-15T14:16:40;22.20;63.50
20288;DHT22;10303;51.960;8.372;2022-11-15T14:22:25;21.90;62.60
20288;DHT22;10303;51.960;8.372;2022-11-15T14:25:17;21.80;63.70
20288;DHT22;10303;51.960;8.372;2022-11-15T14:28:28;21.70;64.20
20288;DHT22;10303;51.960;8.372;2022-11-15T14:30:55;21.70;64.40
20288;DHT22;10303;51.960;8.372;2022-11-15T14:36:15;21.40;65.00
20288;DHT22;10303;51.960;8.372;2022-11-15T14:38:43;21.40;65.00
20288;DHT22;10303;51.960;8.372;2022-11-15T14:41:27;21.40;65.60
20288;DHT22;10303;51.960;8.372;2022-11-15T14:43:53;21.20;65.50
20288;DHT22;10303;51.960;8.372;2022-11-15T14:46:19;21.20;65.70
20288;DHT22;10303;51.960;8.372;2022-11-15T14:48:45;21.10;65.90
20288;DHT22;10303;51.960;8.372;2022-11-15T14:51:17;21.00;65.80
20288;DHT22;10303;51.960;8.372;2022-11-15T14:53:44;21.00;65.90
20288;DHT22;10303;51.960;8.372;2022-11-15T14:56:11;20.90;66.20
20288;DHT22;10303;51.960;8.372;2022-11-15T14:58:38;20.80;66.30
20288;DHT22;10303;51.960;8.372;2022-11-15T15:01:25;20.80;66.60
20288;DHT22;10303;51.960;8.372;2022-11-15T15:03:53;20.70;66.60
20288;DHT22;10303;51.960;8.372;2022-11-15T15:06:34;20.60;67.00
20288;DHT22;10303;51.960;8.372;2022-11-15T15:09:03;20.60;67.60
20288;DHT22;10303;51.960;8.372;2022-11-15T15:11:40;20.50;66.90
20288;DHT22;10303;51.960;8.372;2022-11-15T15:14:08;20.40;67.60
20288;DHT22;10303;51.960;8.372;2022-11-15T15:16:34;20.30;67.30
20288;DHT22;10303;51.960;8.372;2022-11-15T15:19:00;20.30;67.50
20288;DHT22;10303;51.960;8.372;2022-11-15T15:21:28;20.30;67.50
20288;DHT22;10303;51.960;8.372;2022-11-15T15:23:58;20.20;67.40
20288;DHT22;10303;51.960;8.372;2022-11-15T15:26:25;20.10;68.00
20288;DHT22;10303;51.960;8.372;2022-11-15T15:28:52;20.00;67.80
20288;DHT22;10303;51.960;8.372;2022-11-15T15:31:22;20.00;67.70
20288;DHT22;10303;51.960;8.372;2022-11-15T15:34:13;19.90;67.50
20288;DHT22;10303;51.960;8.372;2022-11-15T15:36:45;19.90;67.80
20288;DHT22;10303;51.960;8.372;2022-11-15T15:39:12;19.80;68.60
20288;DHT22;10303;51.960;8.372;2022-11-15T15:41:38;19.70;68.00
20288;DHT22;10303;51.960;8.372;2022-11-15T15:44:04;19.70;67.90
20288;DHT22;10303;51.960;8.372;2022-11-15T15:46:30;19.60;67.90
20288;DHT22;10303;51.960;8.372;2022-11-15T15:51:56;19.50;68.40
20288;DHT22;10303;51.960;8.372;2022-11-15T15:57:16;19.30;68.70
20288;DHT22;10303;51.960;8.372;2022-11-15T15:59:58;19.20;69.70
20288;DHT22;10303;51.960;8.372;2022-11-15T16:02:30;19.20;70.00
20288;DHT22;10303;51.960;8.372;2022-11-15T16:04:57;19.10;70.60
20288;DHT22;10303;51.960;8.372;2022-11-15T16:19:31;18.80;72.80
20288;DHT22;10303;51.960;8.372;2022-11-15T16:22:07;18.70;71.90
20288;DHT22;10303;51.960;8.372;2022-11-15T16:33:11;18.40;72.80
20288;DHT22;10303;51.960;8.372;2022-11-15T16:36:01;18.20;72.90
20288;DHT22;10303;51.960;8.372;2022-11-15T16:38:37;18.40;73.90
20288;DHT22;10303;51.960;8.372;2022-11-15T16:41:07;18.00;73.60
20288;DHT22;10303;51.960;8.372;2022-11-15T16:43:52;18.10;74.40
20288;DHT22;10303;51.960;8.372;2022-11-15T16:46:52;18.10;74.80
20288;DHT22;10303;51.960;8.372;2022-11-15T16:49:34;18.10;75.20
20288;DHT22;10303;51.960;8.372;2022-11-15T16:52:01;17.90;75.30
20288;DHT22;10303;51.960;8.372;2022-11-15T16:54:27;17.90;75.50
20288;DHT22;10303;51.960;8.372;2022-11-15T16:56:59;17.80;75.30
20288;DHT22;10303;51.960;8.372;2022-11-15T16:59:48;17.20;75.20
20288;DHT22;10303;51.960;8.372;2022-11-15T17:02:24;17.70;76.90
20288;DHT22;10303;51.960;8.372;2022-11-15T17:04:51;17.70;76.80
20288;DHT22;10303;51.960;8.372;2022-11-15T17:07:34;17.60;76.50
20288;DHT22;10303;51.960;8.372;2022-11-15T17:10:04;17.60;77.30
20288;DHT22;10303;51.960;8.372;2022-11-15T17:12:41;17.60;77.30
20288;DHT22;10303;51.960;8.372;2022-11-15T17:15:08;17.50;78.40
20288;DHT22;10303;51.960;8.372;2022-11-15T17:18:07;17.50;77.50
20288;DHT22;10303;51.960;8.372;2022-11-15T17:21:02;17.40;79.10
20288;DHT22;10303;51.960;8.372;2022-11-15T17:24:00;17.40;79.10
20288;DHT22;10303;51.960;8.372;2022-11-15T17:26:34;17.40;79.40
20288;DHT22;10303;51.960;8.372;2022-11-15T17:29:14;18.00;79.40
20288;DHT22;10303;51.960;8.372;2022-11-15T17:31:42;17.30;81.00
20288;DHT22;10303;51.960;8.372;2022-11-15T17:34:13;17.40;79.60
20288;DHT22;10303;51.960;8.372;2022-11-15T17:36:41;17.30;81.80
20288;DHT22;10303;51.960;8.372;2022-11-15T17:39:08;17.30;80.60
20288;DHT22;10303;51.960;8.372;2022-11-15T17:45:08;17.30;81.90
20288;DHT22;10303;51.960;8.372;2022-11-15T17:48:07;17.30;80.50
20288;DHT22;10303;51.960;8.372;2022-11-15T17:51:23;17.30;81.00
20288;DHT22;10303;51.960;8.372;2022-11-15T18:00:33;17.30;83.80
20288;DHT22;10303;51.960;8.372;2022-11-15T18:03:27;17.30;82.60
20288;DHT22;10303;51.960;8.372;2022-11-15T18:14:34;17.30;83.20
20288;DHT22;10303;51.960;8.372;2022-11-15T18:36:09;17.30;86.00
20288;DHT22;10303;51.960;8.372;2022-11-15T18:38:39;17.30;87.50
20288;DHT22;10303;51.960;8.372;2022-11-15T18:41:45;17.20;87.60
20288;DHT22;10303;51.960;8.372;2022-11-15T18:44:15;16.70;86.10
20288;DHT22;10303;51.960;8.372;2022-11-15T18:47:47;17.30;86.70
20288;DHT22;10303;51.960;8.372;2022-11-15T18:53:23;17.30;86.60
20288;DHT22;10303;51.960;8.372;2022-11-15T18:56:28;17.30;88.40
20288;DHT22;10303;51.960;8.372;2022-11-15T18:58:57;16.70;86.90
20288;DHT22;10303;51.960;8.372;2022-11-15T19:15:45;17.30;87.80
20288;DHT22;10303;51.960;8.372;2022-11-15T19:21:38;17.30;88.00
20288;DHT22;10303;51.960;8.372;2022-11-15T19:32:51;17.30;87.80
20288;DHT22;10303;51.960;8.372;2022-11-15T19:35:17;17.30;88.20
20288;DHT22;10303;51.960;8.372;2022-11-15T19:37:46;17.30;88.20
20288;DHT22;10303;51.960;8.372;2022-11-15T19:40:37;16.60;87.90
20288;DHT22;10303;51.960;8.372;2022-11-15T19:44:35;17.40;88.50
20288;DHT22;10303;51.960;8.372;2022-11-15T19:47:03;17.40;89.80
20288;DHT22;10303;51.960;8.372;2022-11-15T19:55:38;17.40;90.00
20288;DHT22;10303;51.960;8.372;2022-11-15T20:06:36;17.40;89.40
20288;DHT22;10303;51.960;8.372;2022-11-15T20:09:14;17.30;89.90
20288;DHT22;10303;51.960;8.372;2022-11-15T20:11:50;17.30;90.20
20288;DHT22;10303;51.960;8.372;2022-11-15T20:27:35;17.30;89.60
20288;DHT22;10303;51.960;8.372;2022-11-15T20:36:14;17.30;89.60
20288;DHT22;10303;51.960;8.372;2022-11-15T20:39:11;17.50;90.00
20288;DHT22;10303;51.960;8.372;2022-11-15T20:44:44;17.30;89.40
20288;DHT22;10303;51.960;8.372;2022-11-15T21:02:44;17.20;90.20
20288;DHT22;10303;51.960;8.372;2022-11-15T21:17:51;17.20;90.60
20288;DHT22;10303;51.960;8.372;2022-11-15T21:42:36;17.10;90.40
20288;DHT22;10303;51.960;8.372;2022-11-15T21:45:26;17.10;90.50
20288;DHT22;10303;51.960;8.372;2022-11-15T21:56:16;17.00;90.30
20288;DHT22;10303;51.960;8.372;2022-11-15T21:58:43;17.00;91.00
20288;DHT22;10303;51.960;8.372;2022-11-15T22:18:54;17.00;90.90
20288;DHT22;10303;51.960;8.372;2022-11-15T22:39:37;16.80;91.90
20288;DHT22;10303;51.960;8.372;2022-11-15T22:42:33;16.90;91.20
20288;DHT22;10303;51.960;8.372;2022-11-15T22:45:57;16.70;92.00
20288;DHT22;10303;51.960;8.372;2022-11-15T22:52:10;16.70;91.40
20288;DHT22;10303;51.960;8.372;2022-11-15T22:54:38;16.60;91.50
20288;DHT22;10303;51.960;8.372;2022-11-15T23:00:11;16.60;91.60
20288;DHT22;10303;51.960;8.372;2022-11-15T23:02:44;16.60;91.70
20288;DHT22;10303;51.960;8.372;2022-11-15T23:05:10;16.50;91.80
20288;DHT22;10303;51.960;8.372;2022-11-15T23:07:39;16.50;92.00
20288;DHT22;10303;51.960;8.372;2022-11-15T23:10:06;16.40;92.20
20288;DHT22;10303;51.960;8.372;2022-11-15T23:13:09;16.40;92.10
20288;DHT22;10303;51.960;8.372;2022-11-15T23:16:08;16.40;92.30
20288;DHT22;10303;51.960;8.372;2022-11-15T23:22:13;16.30;92.10
20288;DHT22;10303;51.960;8.372;2022-11-15T23:25:33;16.20;92.80
20288;DHT22;10303;51.960;8.372;2022-11-15T23:28:28;16.20;92.60
20288;DHT22;10303;51.960;8.372;2022-11-15T23:31:02;16.20;93.00
20288;DHT22;10303;51.960;8.372;2022-11-15T23:34:14;16.20;93.10
20288;DHT22;10303;51.960;8.372;2022-11-15T23:40:02;15.80;92.80
20288;DHT22;10303;51.960;8.372;2022-11-15T23:42:44;15.90;92.90
20288;DHT22;10303;51.960;8.372;2022-11-15T23:45:17;16.00;92.80
20288;DHT22;10303;51.960;8.372;2022-11-15T23:47:48;16.00;93.10
20288;DHT22;10303;51.960;8.372;2022-11-15T23:50:14;16.00;93.40
20288;DHT22;10303;51.960;8.372;2022-11-15T23:52:41;16.00;93.30
20288;DHT22;10303;51.960;8.372;2022-11-15T23:55:36;15.90;93.40
20288;DHT22;10303;51.960;8.372;2022-11-15T23:58:08;15.90;93.60
